ナンディ の空港の天気 - METARとTAF

ナンディ国際空港 ( NFFN / NAN ) - フィジー ナンディ (ビティレブ島)
飛行場実況気象(Metar)
観測時間01/19 23:00 FJT (01/19 11:00 UTC)
風向・風速東 2m/s
視程10km以上
天気現象弱いしゅう雨
全天の8割程度の雲 雲底高度 670m
全天の8割程度の雲 雲底高度 1340m
気温25℃
湿度100%
気圧1010hPa
METARNFFN 191100Z 08003KT 9999 -SHRA BKN022TCU BKN044 25/25 Q1010 TEMPO 3000 TSRA SCT015CB BKN012
過去の天気等 Google飛行場航空写真 Wunderground天気予報

過去48時間のMETAR

飛行場予報(TAF)
発表時間: 1/19 17:13 FJT (1/19 05:13 UTC)
予報対象時間: 19日18時 FJT ~ 20日18時 FJT
風向・風速北北東 4m/s
視程10km以上
天気現象弱いしゅう雨
全天の4割程度の雲 雲底高度 210m
全天の4割程度の雲 雲底高度 610m
全天の8割程度の雲 雲底高度 1370m
19日12時 FJT ~ 19日20時 FJT に一時的に
視程1500m
天気現象強い雷雨
全天の8割程度の雲 雲底高度 370m
全天の4割程度の積乱雲 雲底高度 460m
19日20時 FJT ~ 20日2時 FJT に一時的に
視程3000m
天気現象雷雨
全天の8割程度の雲 雲底高度 370m
少しの積乱雲 雲底高度 460m
20日2時 FJT ~ 20日12時 FJT に 確率 40% で一時的に
視程3000m
天気現象雷雨
全天の8割程度の雲 雲底高度 370m
少しの積乱雲 雲底高度 460m
20日12時 FJT ~ 20日18時 FJT に 確率 30% で一時的に
視程5000m
天気現象雷雨
全天の8割程度の雲 雲底高度 370m
少しの積乱雲 雲底高度 460m
TAF NFFN 190513Z 1906/2006 02008KT 9999 -SHRA SCT007 SCT020 BKN045
TEMPO 1900/1908 1500 +TSRA BKN012 SCT015CB
TEMPO 1908/1914 3000 TSRA BKN012 FEW015CB
PROB40 TEMPO 1914/1924 3000 TSRA BKN012 FEW015CB
PROB30 TEMPO 2000/2006 5000 TSRA BKN012 FEW015CB